Latest Weather Observations for Cairns

IDQ60801

Issued at 10:02 am EST Tuesday 26 May 2015 (issued every 30 minutes, with the page automatically refreshed every 10 minutes)

About weather observations | Map of weather stations | Latest weather observations for QLD | Other Formats
Station Details ID: 031011 Name: CAIRNS AERO Lat: -16.87 Lon: 145.75 Height: 2.22 m
Data from the previous 72 hours. | See also: Recent months at Cairns
Date/Time
EST
Temp
°C
App
Temp
°C
Dew
Point
Rel
Hum
%
Delta-T
°C
Wind Press
QNH
hPa
Press
MSL
hPa
Rain
since 9 am
mm
Dir
 
Spd
km/h
Gust
km/h
Spd
kts
Gust
kts
26/09:00am 22.9 23.0 20.3 85 1.7 S 20 33 11 18 1021.3 1021.2 4.0
26/08:30am 22.5 22.3 19.7 84 1.8 SSE 20 28 11 15 1020.9 - 4.0
26/08:00am 22.3 22.1 19.8 86 1.6 SSE 20 32 11 17 1020.7 - 4.0
26/07:30am 22.0 21.7 19.2 84 1.8 S 19 30 10 16 1020.5 - 3.8
26/07:00am 21.8 21.2 18.9 83 1.8 S 20 32 11 17 1020.3 - 3.8
26/06:30am 21.7 21.0 18.7 83 1.9 S 20 32 11 17 1020.2 - 3.8
26/06:00am 21.0 21.1 19.1 89 1.2 S 17 26 9 14 1020.2 1020.1 3.8
26/05:00am 21.3 20.8 19.1 87 1.4 S 20 32 11 17 1019.5 - 3.6
26/04:30am 21.3 21.4 19.2 88 1.3 S 17 26 9 14 1019.5 - 3.6
26/04:00am 21.5 21.0 19.1 86 1.5 S 20 30 11 16 1019.5 - 3.6
26/03:30am 21.8 21.3 19.1 84 1.7 S 20 30 11 16 1019.7 - 3.6
26/03:00am 21.4 21.7 19.7 90 1.1 SSE 17 22 9 12 1020.1 1020.0 3.4
26/02:30am 21.9 21.9 18.9 83 1.9 S 17 30 9 16 1020.1 - 3.0
26/02:00am 22.3 22.4 19.1 82 2.0 S 17 24 9 13 1020.4 - 3.0
26/01:30am 22.1 22.6 19.3 84 1.8 SSE 15 24 8 13 1020.7 - 3.0
26/01:00am 22.1 22.2 19.1 83 1.9 S 17 26 9 14 1020.7 - 3.0
26/12:30am 22.4 22.1 19.1 81 2.1 S 19 30 10 16 1020.8 - 3.0
 
Date/Time
EST
Temp
°C
App
Temp
°C
Dew
Point
Rel
Hum
%
Delta-T
°C
Wind Press
QNH
hPa
Press
MSL
hPa
Rain
since 9 am
mm
Dir
 
Spd
km/h
Gust
km/h
Spd
kts
Gust
kts
25/11:30pm 22.5 22.0 19.2 81 2.1 S 20 32 11 17 1021.0 - 3.0
25/11:00pm 22.1 22.0 19.6 86 1.6 S 19 28 10 15 1021.3 - 3.0
25/10:30pm 22.2 22.4 19.4 84 1.8 S 17 26 9 14 1021.5 - 2.8
25/10:00pm 21.8 22.2 19.8 88 1.3 SSE 17 26 9 14 1021.5 - 2.8
25/09:30pm 21.7 22.0 19.7 88 1.3 SSE 17 24 9 13 1021.4 - 2.6
25/09:00pm 22.1 22.3 19.4 85 1.7 S 17 28 9 15 1021.1 1021.0 2.6
25/08:30pm 21.8 22.5 19.6 87 1.4 SSE 15 22 8 12 1021.0 - 2.6
25/08:00pm 21.8 22.1 19.6 87 1.4 S 17 26 9 14 1020.6 - 2.6
25/07:30pm 21.5 21.6 19.9 91 1.0 S 19 32 10 17 1020.4 - 2.6
25/07:00pm 21.5 22.8 20.1 92 0.9 SSE 13 17 7 9 1020.2 - 2.2
25/06:47pm 21.6 21.9 20.4 93 0.8 SSE 19 26 10 14 1020.2 - 2.2
25/06:30pm 22.1 22.0 19.6 86 1.6 S 19 32 10 17 1019.9 - 2.0
25/05:30pm 23.6 23.1 19.0 75 2.9 SSE 20 32 11 17 1019.4 - 1.8
25/05:00pm 24.3 22.9 18.9 72 3.4 SSE 24 33 13 18 1019.3 - 1.8
25/04:30pm 24.3 23.7 18.8 71 3.5 S 20 28 11 15 1019.1 - 1.8
25/04:00pm 24.1 21.4 19.2 74 3.1 SE 32 35 17 19 1019.0 - 1.8
25/03:30pm 24.7 23.5 19.2 71 3.5 SSE 24 32 13 17 1019.1 - 1.8
25/03:00pm 25.1 24.4 19.5 71 3.6 SSE 22 30 12 16 1019.2 1019.1 1.8
25/02:30pm 24.2 23.6 19.8 76 2.8 S 22 33 12 18 1019.3 - 1.8
25/02:00pm 23.1 24.2 20.5 85 1.7 S 15 24 8 13 1019.5 - 1.8
25/01:40pm 23.1 22.9 20.6 86 1.6 SSE 22 35 12 19 1020.0 - 1.8
25/01:30pm 23.1 21.6 20.2 84 1.9 SE 28 35 15 19 1020.1 - 1.8
25/01:22pm 23.4 21.6 20.3 83 2.0 SE 30 39 16 21 1020.2 - 1.8
25/01:00pm 23.0 22.1 20.7 87 1.5 SE 26 32 14 17 1020.6 - 1.8
25/12:30pm 23.1 22.1 20.5 85 1.7 SE 26 37 14 20 1021.0 - 1.8
25/12:00pm 23.3 22.2 21.0 87 1.5 SSE 28 37 15 20 1021.4 1021.3 1.8
25/11:54am 23.2 22.1 21.1 88 1.4 SSE 28 37 15 20 1021.4 - 1.8
25/11:30am 23.9 22.4 20.2 80 2.4 SE 28 33 15 18 1021.8 - 1.6
25/11:00am 24.3 24.7 21.7 85 1.7 SSE 22 32 12 17 1021.9 - 1.6
25/10:30am 22.5 21.1 21.1 92 0.9 SSE 30 37 16 20 1022.2 - 1.6
25/10:27am 22.5 21.4 21.1 92 0.9 SSE 28 37 15 20 1022.2 - 1.6
25/10:00am 22.1 20.2 21.0 93 0.7 SE 32 44 17 24 1022.2 - 1.0
25/09:56am 22.3 21.5 20.9 92 0.9 SSE 26 44 14 24 1022.2 - 0.2
25/09:50am 23.4 22.6 20.9 86 1.6 SSE 26 33 14 18 1022.2 - 0.0
25/09:39am 22.9 21.5 21.1 89 1.2 SSE 30 48 16 26 1022.1 - 0.0
25/09:30am 22.7 19.2 20.5 87 1.4 SSE 39 52 21 28 1022.0 - 0.0
25/09:20am 24.0 21.5 19.8 77 2.7 SSE 32 43 17 23 1021.8 - 0.0
25/09:00am 24.2 23.5 20.3 79 2.5 SSE 24 33 13 18 1021.8 1021.7 1.2
25/08:30am 23.3 22.8 20.7 85 1.7 SSE 24 32 13 17 1021.6 - 1.2
25/08:00am 22.4 22.3 20.7 90 1.1 SSE 22 33 12 18 1021.2 - 1.2
25/07:54am 22.5 22.3 20.6 89 1.2 SSE 22 33 12 18 1021.2 - 1.2
25/07:30am 22.9 23.0 20.4 86 1.6 S 20 32 11 17 1020.8 - 1.2
25/07:00am 22.8 23.1 20.5 87 1.5 S 19 30 10 16 1020.6 - 1.0
25/06:30am 22.9 23.7 20.6 87 1.5 S 17 28 9 15 1020.1 - 1.0
25/06:00am 22.8 23.0 20.5 87 1.5 SSE 20 32 11 17 1019.7 1019.6 1.0
25/05:30am 22.5 22.9 20.6 89 1.2 SSE 19 30 10 16 1019.4 - 1.0
25/05:00am 22.8 23.5 20.5 87 1.5 S 17 26 9 14 1019.2 - 1.0
25/04:30am 22.6 23.3 20.4 87 1.4 SSE 17 26 9 14 1019.3 - 1.0
25/04:00am 22.5 23.6 20.5 88 1.3 SSE 15 22 8 12 1019.1 - 1.0
25/03:30am 22.4 21.6 20.1 87 1.5 S 24 33 13 18 1019.0 - 1.0
25/03:00am 22.6 23.9 20.1 86 1.6 S 13 22 7 12 1019.1 1019.0 0.8
25/02:30am 22.4 22.7 20.4 88 1.3 SSE 19 26 10 14 1019.4 - 0.6
25/02:00am 22.3 22.8 20.1 87 1.4 S 17 28 9 15 1019.6 - 0.6
25/01:30am 21.9 22.2 20.3 91 1.0 S 19 26 10 14 1019.9 - 0.2
25/01:00am 22.7 22.4 19.6 82 2.0 S 20 30 11 16 1019.8 - 0.0
25/12:30am 23.0 22.6 19.4 80 2.3 S 20 32 11 17 1019.9 - 0.0
25/12:00am 23.3 22.7 18.9 76 2.8 S 20 28 11 15 1020.1 1020.0 0.0
 
Date/Time
EST
Temp
°C
App
Temp
°C
Dew
Point
Rel
Hum
%
Delta-T
°C
Wind Press
QNH
hPa
Press
MSL
hPa
Rain
since 9 am
mm
Dir
 
Spd
km/h
Gust
km/h
Spd
kts
Gust
kts
24/11:30pm 22.9 21.5 18.9 78 2.5 S 24 33 13 18 1020.0 - 0.0
24/11:00pm 23.2 22.4 18.4 74 3.0 S 20 30 11 16 1020.1 - 0.0
24/10:30pm 23.3 23.1 18.4 74 3.1 S 17 26 9 14 1020.2 - 0.0
24/10:00pm 23.2 22.9 18.2 73 3.1 S 17 26 9 14 1020.1 - 0.0
24/09:30pm 23.0 22.7 18.2 74 3.0 S 17 24 9 13 1020.3 - 0.0
24/09:00pm 23.1 22.7 18.1 73 3.1 S 17 24 9 13 1020.1 1020.0 0.0
24/08:30pm 23.4 22.4 17.9 71 3.4 SSE 20 30 11 16 1020.0 - 0.0
24/08:00pm 23.6 22.5 17.8 70 3.6 SSE 20 33 11 18 1019.8 - 0.0
24/07:30pm 23.8 22.7 17.7 68 3.8 SSE 20 30 11 16 1019.6 - 0.0
24/07:00pm 24.3 22.2 17.2 64 4.4 SSE 24 33 13 18 1019.2 - 0.0
24/06:30pm 24.3 24.1 17.5 66 4.2 SSE 15 22 8 12 1019.0 - 0.0
24/06:00pm 24.2 23.0 17.1 64 4.4 SSE 19 26 10 14 1018.7 1018.6 0.0
24/05:30pm 24.9 22.0 17.0 61 4.9 SE 28 33 15 18 1018.5 - 0.0
24/05:00pm 26.0 22.7 16.0 54 6.1 SE 28 35 15 19 1018.2 - 0.0
24/04:30pm 26.1 22.5 16.3 54 6.0 SE 30 39 16 21 1018.0 - 0.0
24/04:00pm 26.8 22.7 16.0 51 6.6 SE 32 41 17 22 1017.7 - 0.0
24/03:30pm 27.6 23.7 16.4 50 6.9 SE 32 41 17 22 1017.5 - 0.0
24/03:00pm 27.4 23.5 16.4 51 6.8 SE 32 41 17 22 1017.2 1017.1 0.0
24/02:30pm 27.0 23.5 16.5 52 6.5 SE 30 39 16 21 1017.3 - 0.0
24/02:00pm 27.2 22.4 15.7 49 7.0 SE 35 44 19 24 1017.3 - 0.0
24/01:30pm 27.3 23.4 16.5 51 6.7 SE 32 41 17 22 1017.6 - 0.0
24/01:00pm 27.4 23.4 16.6 51 6.7 SE 33 39 18 21 1018.0 - 0.0
24/12:30pm 27.0 22.7 15.9 50 6.8 SE 33 41 18 22 1018.4 - 0.0
24/12:00pm 27.3 22.7 16.1 50 6.9 SE 35 48 19 26 1018.9 1018.8 0.0
24/11:30am 26.7 22.8 16.5 53 6.3 SE 32 39 17 21 1019.2 - 0.0
24/11:00am 26.5 22.6 16.4 53 6.2 SE 32 41 17 22 1019.5 - 0.0
24/10:30am 26.9 24.5 16.3 52 6.5 SSE 24 35 13 19 1019.8 - 0.0
24/10:00am 25.0 22.4 15.8 56 5.6 SSE 24 32 13 17 1020.2 - 0.0
24/09:30am 24.7 21.9 15.4 56 5.6 SSE 24 30 13 16 1020.3 - 0.0
24/09:00am 23.8 21.1 14.5 56 5.5 S 22 33 12 18 1020.2 1020.1 0.0
24/08:30am 23.1 20.4 13.6 55 5.5 S 20 33 11 18 1019.7 - 0.0
24/08:00am 22.4 19.5 13.0 55 5.4 S 20 33 11 18 1019.3 - 0.0
24/07:30am 21.7 18.8 12.3 55 5.3 S 19 30 10 16 1019.0 - 0.0
24/07:00am 20.6 18.5 12.4 59 4.6 S 15 28 8 15 1018.9 - 0.0
24/06:30am 19.8 17.4 12.7 63 4.0 S 17 26 9 14 1018.6 - 0.0
24/06:00am 20.1 17.6 12.4 61 4.3 S 17 26 9 14 1018.5 1018.4 0.0
24/05:30am 17.5 15.3 13.2 76 2.4 SE 17 28 9 15 1018.3 - 0.0
24/05:00am 18.7 16.3 12.8 68 3.3 SSE 17 26 9 14 1018.1 - 0.0
24/04:30am 20.2 17.7 12.3 60 4.4 S 17 28 9 15 1018.1 - 0.0
24/04:00am 17.6 15.4 13.3 76 2.4 SE 17 22 9 12 1018.0 - 0.0
24/03:30am 17.0 14.9 13.6 80 1.9 SE 17 22 9 12 1018.1 - 0.0
24/03:00am 17.6 15.4 13.3 76 2.4 SE 17 24 9 13 1018.1 1018.0 0.0
24/02:30am 17.8 15.7 13.6 76 2.4 ESE 17 22 9 12 1018.2 - 0.0
24/02:00am 18.0 15.5 13.4 74 2.6 ESE 19 22 10 12 1018.3 - 0.0
24/01:30am 17.5 15.4 13.6 78 2.2 SE 17 19 9 10 1018.4 - 0.0
24/01:00am 17.7 15.9 13.4 76 2.4 SE 15 19 8 10 1018.7 - 0.0
24/12:30am 19.9 17.4 12.4 62 4.2 S 17 26 9 14 1018.8 - 0.0
24/12:00am 19.7 17.9 12.1 61 4.2 SSE 13 20 7 11 1019.0 1018.9 0.0
 
Date/Time
EST
Temp
°C
App
Temp
°C
Dew
Point
Rel
Hum
%
Delta-T
°C
Wind Press
QNH
hPa
Press
MSL
hPa
Rain
since 9 am
mm
Dir
 
Spd
km/h
Gust
km/h
Spd
kts
Gust
kts
23/11:30pm 18.4 16.5 13.1 71 3.0 SE 15 17 8 9 1019.3 - 0.0
23/11:00pm 19.8 18.2 12.7 63 4.0 SSE 13 20 7 11 1019.4 - 0.0
23/10:30pm 19.1 17.5 12.7 66 3.6 SE 13 19 7 10 1019.6 - 0.0
23/10:00pm 20.2 18.0 12.1 59 4.5 SSE 15 19 8 10 1019.6 - 0.0
23/09:30pm 20.5 18.8 12.3 59 4.6 SSE 13 22 7 12 1019.6 - 0.0
23/09:00pm 20.9 18.5 12.8 60 4.6 SSE 17 24 9 13 1019.7 1019.6 0.0
23/08:30pm 21.2 18.9 13.1 60 4.6 S 17 26 9 14 1019.6 - 0.0
23/08:00pm 21.2 18.5 13.5 61 4.4 S 20 30 11 16 1019.3 - 0.0
23/07:30pm 21.4 19.1 14.0 62 4.3 S 19 30 10 16 1019.0 - 0.0
23/07:00pm 21.2 19.4 14.5 65 3.9 S 17 28 9 15 1018.7 - 0.0
23/06:30pm 21.4 19.7 14.8 66 3.9 S 17 26 9 14 1018.5 - 0.0
23/06:00pm 22.0 19.3 14.7 63 4.3 SSE 22 35 12 19 1018.1 1018.0 0.0
23/05:30pm 22.5 18.6 14.5 60 4.7 SSE 28 37 15 20 1017.8 - 0.0
23/05:00pm 23.0 18.4 14.5 58 5.0 SSE 32 44 17 24 1017.4 - 0.0
23/04:30pm 23.9 20.1 14.6 56 5.5 SSE 28 37 15 20 1017.0 - 0.0
23/04:00pm 24.3 19.2 14.7 55 5.7 SE 35 43 19 23 1016.6 - 0.0
23/03:30pm 25.1 20.3 14.7 52 6.2 SE 33 39 18 21 1016.5 - 0.0
23/03:00pm 25.4 20.8 14.7 51 6.4 SE 32 39 17 21 1016.3 1016.2 0.0
23/02:30pm 25.7 21.0 14.4 49 6.7 SE 32 43 17 23 1016.4 - 0.0
23/02:00pm 26.0 21.0 14.0 47 7.1 SE 33 43 18 23 1016.5 - 0.0
23/01:30pm 26.1 20.6 13.7 46 7.3 SE 35 44 19 24 1016.7 - 0.0
23/01:00pm 26.2 20.6 13.2 44 7.6 SE 35 46 19 25 1017.1 - 0.0
23/12:30pm 25.9 19.6 13.4 46 7.3 SE 39 48 21 26 1017.5 - 0.0
23/12:00pm 26.5 20.9 12.0 40 8.3 SE 33 46 18 25 1017.8 1017.7 0.0
23/11:30am 24.7 18.8 12.3 46 7.1 SE 35 48 19 26 1018.2 - 0.0
23/11:00am 24.9 19.2 11.2 42 7.7 SE 32 39 17 21 1018.6 - 0.0
23/10:30am 25.7 20.5 10.2 37 8.6 SSE 28 37 15 20 1018.8 - 0.0

Other Formats:

Comma delimited format used in spreadsheet applications
http://www.bom.gov.au/fwo/IDQ60801/IDQ60801.94287.axf

JavaScript Object Notation format (JSON) in row-major order
http://www.bom.gov.au/fwo/IDQ60801/IDQ60801.94287.json